Okanogan, Washington
Current Conditions -  °F | °C
As of 1:53 AM on Monday 20 Oct 2014 (Local Time) from KOMK Reporting Station
Clear Clear  
Wind Chill: 44°   Ceiling: Unl
Heat Index: 46°   Visibility: 10mi
Dew Point: 42°   Wind: 5mph
Humidity: 86%   Direction: 270°W
Pressure: 29.74"   Gusts: NA
Location:  48.36°N, 119.58°W
Report Text: KOMK 200853Z AUTO 27004KT 10SM CLR 08/06 A2974 RMK AO2 SLP071 T00780056 56003
Loading
Personal Weather Stations






























Interactive Weather Map
Tropical Storm Tracking
New forecast layout! Learn more

10-Day Weather Forecast

Advertisements
Track Severe Weather on mobile